Ranchester, Wyoming
Current Conditions -  °F | °C
As of 7:53 AM on Friday 26 Dec 2014 (Local Time) from KSHR Reporting Station
Clear Clear  
Wind Chill: -3°   Ceiling: Unl
Heat Index:   Visibility: 10mi
Dew Point:   Wind: 5mph
Humidity: 87%   Direction: 220°SW
Pressure: 30.03"   Gusts: NA
Location:  44.91°N, 107.16°W
Report Text: KSHR 261453Z AUTO 22004KT 10SM CLR M14/M16 A3003 RMK AO2 SLP236 T11441161 51008
Loading
Personal Weather Stations






























Interactive Weather Map New forecast layout! Learn more

10-Day Weather Forecast

Advertisements
Track Severe Weather on mobile